Time;durP1;ratioP1;P1;durP2;ratioP2;P2;SDS_P1;SDS_P2;PMS_P1;PMS_P2;Temp;Humidity;BMP_temperature;BMP_pressure;BME280_temperature;BME280_humidity;BME280_pressure;Samples;Min_cycle;Max_cycle;Signal;HPM_P1;HPM_P2
2021/07/26 00:02:03;;;;;;;24.83;6.57;;;;;;;21.62;47.66;99826.59;5010250;28;20403;-68
2021/07/26 00:04:29;;;;;;;14.80;5.97;;;;;;;21.57;48.13;99819.28;5009443;28;20033;-69
2021/07/26 00:06:55;;;;;;;14.57;5.70;;;;;;;21.71;48.41;99818.50;5010729;28;20030;-69
2021/07/26 00:09:20;;;;;;;13.43;5.53;;;;;;;21.70;48.31;99824.63;5011756;28;20038;-67
2021/07/26 00:11:45;;;;;;;12.80;5.78;;;;;;;21.38;48.22;99811.91;5014421;28;20029;-68
2021/07/26 00:14:11;;;;;;;20.63;6.25;;;;;;;21.21;48.71;99819.16;5013766;28;20522;-68
2021/07/26 00:16:36;;;;;;;26.23;6.78;;;;;;;20.62;50.12;99817.97;5013836;28;20126;-67
2021/07/26 00:19:02;;;;;;;16.00;6.63;;;;;;;21.08;49.73;99817.88;5012828;28;20096;-69
2021/07/26 00:21:28;;;;;;;16.27;7.32;;;;;;;20.94;49.67;99821.44;5014486;28;20034;-69
2021/07/26 00:23:53;;;;;;;13.90;6.60;;;;;;;21.06;49.09;99809.72;5014328;28;20038;-69
2021/07/26 00:26:19;;;;;;;20.67;6.95;;;;;;;21.18;49.19;99811.41;5013838;28;20088;-67
2021/07/26 00:28:44;;;;;;;10.38;6.75;;;;;;;21.29;49.12;99820.78;5012969;28;20033;-67
2021/07/26 00:31:10;;;;;;;14.85;6.43;;;;;;;21.18;49.06;99828.47;5013766;28;20491;-68
2021/07/26 00:34:21;;;;;;;15.73;6.55;;;;;;;21.44;49.30;99826.56;5012868;28;20503;-67
2021/07/26 00:36:52;;;;;;;13.52;6.60;;;;;;;20.80;51.69;99827.81;5012344;28;20100;-68
2021/07/26 00:39:20;;;;;;;14.38;6.70;;;;;;;20.67;51.95;99824.50;5014242;28;20026;-68
2021/07/26 00:41:47;;;;;;;17.90;6.22;;;;;;;20.41;52.99;99826.34;5013378;28;20030;-67
2021/07/26 00:44:14;;;;;;;17.90;7.32;;;;;;;20.58;52.22;99819.19;5014300;28;20029;-68
2021/07/26 00:46:40;;;;;;;13.57;6.78;;;;;;;20.70;52.18;99823.72;5012905;28;20038;-68
2021/07/26 00:49:09;;;;;;;24.13;6.65;;;;;;;20.55;52.52;99815.09;5013428;28;20076;-68
2021/07/26 00:51:36;;;;;;;9.27;6.75;;;;;;;20.67;52.34;99819.63;5013466;28;20106;-67
2021/07/26 00:54:02;;;;;;;12.45;6.38;;;;;;;20.36;52.90;99819.00;5012417;28;20041;-68
2021/07/26 00:56:28;;;;;;;14.48;7.18;;;;;;;20.05;53.98;99816.31;5013408;28;20549;-68
2021/07/26 00:58:54;;;;;;;10.95;6.65;;;;;;;20.24;53.60;99820.13;5012271;28;20483;-69
2021/07/26 01:01:20;;;;;;;18.45;7.32;;;;;;;20.31;53.59;99820.19;5012268;28;20038;-68
2021/07/26 01:03:45;;;;;;;14.07;7.40;;;;;;;20.21;53.75;99818.06;5012269;28;20184;-67
2021/07/26 01:06:14;;;;;;;16.50;7.53;;;;;;;19.90;54.43;99811.66;5012879;28;20049;-67
2021/07/26 01:08:41;;;;;;;12.25;7.72;;;;;;;20.09;54.01;99807.84;5011822;28;20026;-68
2021/07/26 01:11:07;;;;;;;15.25;7.53;;;;;;;20.18;53.51;99799.00;5013336;28;20161;-67
2021/07/26 01:13:33;;;;;;;16.40;7.30;;;;;;;19.74;55.18;99797.75;5013139;28;20034;-68
2021/07/26 01:15:59;;;;;;;19.80;8.75;;;;;;;19.66;55.57;99791.16;5013241;28;20045;-70
2021/07/26 01:18:25;;;;;;;22.70;8.77;;;;;;;19.89;54.54;99781.66;5013133;28;20049;-67
2021/07/26 01:20:53;;;;;;;15.10;8.73;;;;;;;19.72;54.94;99783.94;5012991;28;20534;-68
2021/07/26 01:23:20;;;;;;;19.88;8.82;;;;;;;19.55;54.99;99782.56;5013137;28;20038;-69
2021/07/26 01:25:46;;;;;;;16.95;9.15;;;;;;;19.70;54.99;99786.38;5012334;28;20038;-68
2021/07/26 01:28:17;;;;;;;12.77;7.78;;;;;;;19.60;55.24;99787.06;5013216;28;20032;-68
2021/07/26 01:30:44;;;;;;;14.23;8.05;;;;;;;19.83;54.48;99786.88;5012521;28;20052;-69
2021/07/26 01:33:10;;;;;;;9.68;7.32;;;;;;;19.92;53.72;99778.88;5013072;28;20403;-67
2021/07/26 01:35:37;;;;;;;14.98;7.72;;;;;;;19.95;53.55;99780.13;5012325;28;20129;-67
2021/07/26 01:38:03;;;;;;;14.98;8.48;;;;;;;20.10;53.46;99771.75;5011360;28;20025;-67
2021/07/26 01:40:29;;;;;;;15.70;7.95;;;;;;;20.23;52.65;99773.06;5012861;28;20510;-67
2021/07/26 01:43:01;;;;;;;11.35;7.03;;;;;;;20.40;52.41;99770.75;5012647;28;20092;-68
2021/07/26 01:45:27;;;;;;;17.63;9.00;;;;;;;20.42;52.38;99777.66;5000025;28;20338;-67
2021/07/26 01:47:55;;;;;;;22.60;8.52;;;;;;;20.49;52.13;99774.03;5012995;28;20084;-67
2021/07/26 01:50:22;;;;;;;14.80;8.10;;;;;;;20.51;52.01;99765.94;5012454;28;20480;-69
2021/07/26 01:52:48;;;;;;;39.60;9.48;;;;;;;20.58;51.21;99762.34;5011271;28;20036;-67
2021/07/26 01:55:15;;;;;;;20.45;9.32;;;;;;;20.54;51.35;99767.19;5009708;28;20064;-67
2021/07/26 01:57:40;;;;;;;12.50;7.82;;;;;;;20.33;52.30;99758.13;5012316;28;20045;-67
2021/07/26 02:00:06;;;;;;;15.68;8.13;;;;;;;20.32;52.70;99761.34;5012160;28;20084;-67
2021/07/26 02:02:32;;;;;;;20.58;8.77;;;;;;;20.15;53.15;99758.00;5010491;28;20022;-68
2021/07/26 02:05:00;;;;;;;10.80;7.70;;;;;;;20.41;52.41;99755.34;5010770;28;20036;-67
2021/07/26 02:07:25;;;;;;;10.93;8.07;;;;;;;20.33;52.52;99746.75;5012355;28;20468;-68
2021/07/26 02:09:51;;;;;;;18.02;8.60;;;;;;;20.28;53.01;99749.16;5012125;28;20076;-67
2021/07/26 02:12:17;;;;;;;16.08;8.00;;;;;;;20.43;52.92;99748.03;5010599;28;20060;-69
2021/07/26 02:14:42;;;;;;;12.20;7.20;;;;;;;20.55;51.96;99746.91;5009928;28;20033;-67
2021/07/26 02:17:08;;;;;;;11.95;8.07;;;;;;;20.31;52.75;99746.34;5010713;28;20411;-68
2021/07/26 02:19:34;;;;;;;16.73;8.38;;;;;;;20.33;52.57;99748.78;5010812;28;20405;-68
2021/07/26 02:21:59;;;;;;;11.70;7.68;;;;;;;20.53;52.19;99745.66;5011434;28;20040;-67
2021/07/26 02:24:25;;;;;;;16.88;8.32;;;;;;;20.65;51.12;99750.22;5011876;28;20053;-68
2021/07/26 02:26:50;;;;;;;15.02;7.68;;;;;;;20.70;50.69;99756.34;5010364;28;20124;-69
2021/07/26 02:29:16;;;;;;;26.42;8.63;;;;;;;20.63;51.07;99770.50;5012205;28;20026;-68
2021/07/26 02:31:41;;;;;;;20.02;8.23;;;;;;;20.79;50.19;99775.84;5010257;28;20492;-68
2021/07/26 02:34:07;;;;;;;20.90;7.63;;;;;;;20.47;50.94;99777.31;5012083;28;20026;-69
2021/07/26 02:36:33;;;;;;;16.08;8.82;;;;;;;20.31;51.66;99774.75;5011455;28;20420;-69
2021/07/26 02:38:58;;;;;;;15.75;7.57;;;;;;;20.40;51.40;99770.75;5011868;28;20029;-67
2021/07/26 02:41:24;;;;;;;10.38;7.40;;;;;;;20.40;51.51;99770.75;5011422;28;20033;-68
2021/07/26 02:43:49;;;;;;;11.10;7.40;;;;;;;20.42;51.38;99780.50;5011706;28;20030;-67
2021/07/26 02:46:15;;;;;;;9.80;8.20;;;;;;;20.39;51.40;99777.63;5010342;28;20080;-67
2021/07/26 02:48:40;;;;;;;16.85;10.68;;;;;;;20.04;52.37;99777.78;5011895;28;20029;-67
2021/07/26 02:51:06;;;;;;;21.52;12.38;;;;;;;20.10;52.42;99769.72;5010523;28;20030;-67
2021/07/26 02:53:33;;;;;;;23.35;13.75;;;;;;;20.15;52.09;99777.03;5010218;28;20029;-69
2021/07/26 02:55:58;;;;;;;23.77;13.07;;;;;;;20.16;51.91;99790.06;5011310;28;20435;-67
2021/07/26 02:58:24;;;;;;;22.27;13.18;;;;;;;19.85;52.64;99787.31;5011579;28;20030;-67
2021/07/26 03:00:50;;;;;;;25.25;14.30;;;;;;;19.87;52.88;99789.75;5010922;28;20117;-68
2021/07/26 03:03:16;;;;;;;26.23;13.82;;;;;;;19.65;53.13;99806.56;5011292;28;20473;-69
2021/07/26 03:05:42;;;;;;;20.67;13.38;;;;;;;19.71;52.98;99810.69;5011310;28;20034;-67
2021/07/26 03:08:07;;;;;;;23.83;13.82;;;;;;;19.75;52.77;99805.84;5011329;28;20479;-68
2021/07/26 03:10:33;;;;;;;23.73;12.93;;;;;;;19.56;53.42;99814.59;5010613;28;20045;-69
2021/07/26 03:12:59;;;;;;;24.85;11.90;;;;;;;19.44;53.71;99819.31;5009574;28;20092;-67
2021/07/26 03:15:24;;;;;;;16.75;11.05;;;;;;;19.59;52.87;99825.94;5009797;28;20030;-66
2021/07/26 03:17:50;;;;;;;19.23;11.88;;;;;;;19.58;53.42;99829.19;5009269;28;20061;-67
2021/07/26 03:20:16;;;;;;;27.10;11.55;;;;;;;19.55;53.12;99833.63;5010788;28;20038;-67
2021/07/26 03:22:57;;;;;;;20.55;11.00;;;;;;;19.60;52.78;99838.94;5010875;28;20064;-69
2021/07/26 03:25:22;;;;;;;26.88;11.82;;;;;;;19.76;52.37;99846.41;5013154;28;20045;-69
2021/07/26 03:27:48;;;;;;;23.25;10.15;;;;;;;19.73;52.33;99842.31;5010896;28;20034;-69
2021/07/26 03:30:18;;;;;;;22.02;10.00;;;;;;;19.75;52.49;99844.78;5009970;28;20073;-67
2021/07/26 03:32:44;;;;;;;15.75;10.05;;;;;;;19.71;52.62;99838.22;5009701;28;20025;-67
2021/07/26 03:35:11;;;;;;;23.92;10.85;;;;;;;19.69;52.54;99835.81;5009158;28;20354;-68
2021/07/26 03:37:37;;;;;;;17.88;9.20;;;;;;;19.71;51.94;99846.75;5010111;28;20041;-67
2021/07/26 03:40:06;;;;;;;22.42;10.70;;;;;;;19.68;52.35;99845.53;5010029;28;20042;-68
2021/07/26 03:42:36;;;;;;;16.73;9.43;;;;;;;19.88;51.71;99848.16;5008789;28;20538;-68
2021/07/26 03:45:03;;;;;;;22.98;9.40;;;;;;;19.99;52.04;99857.63;5010255;28;20084;-69
2021/07/26 03:47:29;;;;;;;23.98;8.80;;;;;;;19.71;52.44;99860.94;5010469;28;20109;-67
2021/07/26 03:49:54;;;;;;;25.80;9.60;;;;;;;19.64;52.98;99856.00;5008453;28;20133;-68
2021/07/26 03:52:20;;;;;;;19.40;9.88;;;;;;;19.77;52.89;99846.00;5008972;28;20041;-71
2021/07/26 03:54:45;;;;;;;21.52;9.45;;;;;;;19.88;52.47;99848.16;5010515;28;20034;-71
2021/07/26 03:57:11;;;;;;;20.23;8.55;;;;;;;20.02;52.28;99856.84;5008594;28;20578;-72
2021/07/26 03:59:36;;;;;;;16.27;9.63;;;;;;;20.01;52.07;99857.25;5010195;28;20026;-69
2021/07/26 04:02:02;;;;;;;23.00;9.23;;;;;;;19.93;52.44;99856.34;5006992;28;20030;-69
2021/07/26 04:04:28;;;;;;;15.35;8.45;;;;;;;20.00;52.06;99849.94;5006779;28;20038;-72
2021/07/26 04:07:00;;;;;;;15.68;9.07;;;;;;;19.97;52.47;99854.34;5009028;28;20013;-70
2021/07/26 04:09:30;;;;;;;13.00;8.52;;;;;;;19.89;52.50;99867.63;5007749;28;20053;-71
2021/07/26 04:12:02;;;;;;;21.88;8.13;;;;;;;19.99;51.80;99857.63;5009776;28;20116;-69
2021/07/26 04:14:29;;;;;;;13.57;6.45;;;;;;;19.96;51.61;99858.41;5009947;28;20423;-69
2021/07/26 04:16:55;;;;;;;13.10;7.18;;;;;;;19.96;51.78;99861.25;5010157;28;20049;-69
2021/07/26 04:19:20;;;;;;;20.08;7.18;;;;;;;19.97;51.84;99856.38;5009356;28;20492;-69
2021/07/26 04:21:46;;;;;;;19.58;8.75;;;;;;;20.09;51.35;99850.44;5009557;28;20357;-68
2021/07/26 04:24:11;;;;;;;13.48;7.88;;;;;;;20.28;50.97;99855.06;5009306;28;20033;-68
2021/07/26 04:26:37;;;;;;;9.55;6.63;;;;;;;20.38;50.72;99861.22;5007827;28;20029;-68
2021/07/26 04:29:02;;;;;;;14.38;7.30;;;;;;;20.33;50.94;99863.22;5007578;28;20022;-68
2021/07/26 04:31:27;;;;;;;14.68;7.22;;;;;;;20.26;51.33;99863.13;5008129;28;20038;-68
2021/07/26 04:33:53;;;;;;;25.70;8.02;;;;;;;20.33;51.06;99865.22;5007984;28;20018;-68
2021/07/26 04:36:18;;;;;;;16.20;8.65;;;;;;;20.35;51.47;99854.31;5006769;28;20088;-68
2021/07/26 04:38:44;;;;;;;15.93;9.50;;;;;;;20.27;51.84;99866.81;5006514;28;20022;-68
2021/07/26 04:41:09;;;;;;;19.67;10.30;;;;;;;20.31;51.64;99865.63;5008650;28;20511;-69
2021/07/26 04:43:36;;;;;;;26.35;9.25;;;;;;;20.32;51.87;99863.59;5010164;28;20515;-69
2021/07/26 04:46:04;;;;;;;22.50;8.00;;;;;;;20.32;51.67;99858.75;5008421;28;20046;-69
2021/07/26 04:48:29;;;;;;;15.43;7.63;;;;;;;20.28;52.02;99846.53;5010280;28;20044;-69
2021/07/26 04:50:55;;;;;;;11.13;6.40;;;;;;;20.24;52.04;99842.84;5008267;28;20415;-69
2021/07/26 04:53:20;;;;;;;13.35;7.00;;;;;;;20.23;52.07;99846.09;5010385;28;20193;-69
2021/07/26 04:55:46;;;;;;;13.65;6.40;;;;;;;20.21;52.47;99849.31;5012516;28;20497;-70
2021/07/26 04:58:11;;;;;;;8.90;6.03;;;;;;;20.43;51.88;99850.28;5012713;28;20103;-69
2021/07/26 05:00:37;;;;;;;12.45;6.75;;;;;;;20.51;52.09;99854.00;5013389;28;20491;-71
2021/07/26 05:03:09;;;;;;;14.15;6.75;;;;;;;20.70;51.47;99837.91;5012091;28;20088;-71
2021/07/26 05:05:36;;;;;;;12.30;6.63;;;;;;;20.72;51.39;99838.31;5013257;28;20034;-72
2021/07/26 05:08:01;;;;;;;16.17;7.07;;;;;;;20.80;51.43;99840.00;5013379;28;20029;-70
2021/07/26 05:10:27;;;;;;;17.42;7.60;;;;;;;20.83;50.42;99844.13;5013215;28;20084;-70
2021/07/26 05:12:52;;;;;;;9.43;6.70;;;;;;;20.84;50.13;99840.88;5013077;28;20040;-69
2021/07/26 05:15:18;;;;;;;17.00;9.32;;;;;;;21.01;50.43;99841.41;5011310;28;20562;-70
2021/07/26 05:17:43;;;;;;;16.60;10.45;;;;;;;21.12;50.14;99847.13;5011795;28;20077;-70
2021/07/26 05:20:09;;;;;;;14.93;6.75;;;;;;;21.22;48.40;99848.38;5011893;28;20036;-69
2021/07/26 05:22:37;;;;;;;11.88;6.38;;;;;;;21.21;48.37;99858.13;5012090;28;20055;-69
2021/07/26 05:25:03;;;;;;;15.68;6.90;;;;;;;21.37;47.78;99857.81;5012497;28;20504;-70
2021/07/26 05:27:28;;;;;;;24.70;6.97;;;;;;;21.47;47.80;99868.41;5011866;28;20350;-69
2021/07/26 05:29:54;;;;;;;8.07;5.47;;;;;;;21.42;47.48;99874.50;5011650;28;20438;-69
2021/07/26 05:32:19;;;;;;;8.38;5.53;;;;;;;21.22;48.16;99871.13;5013084;28;20472;-70
2021/07/26 05:34:46;;;;;;;12.77;5.47;;;;;;;21.30;48.27;99864.28;5012146;28;20053;-70
2021/07/26 05:37:12;;;;;;;7.82;5.90;;;;;;;21.42;48.47;99858.22;5012816;28;20037;-70
2021/07/26 05:39:37;;;;;;;7.22;5.00;;;;;;;21.54;48.02;99859.91;5011365;28;20030;-69
2021/07/26 05:42:03;;;;;;;12.82;6.20;;;;;;;21.65;47.56;99859.94;5011279;28;20037;-70
2021/07/26 05:44:29;;;;;;;8.82;5.82;;;;;;;21.62;48.11;99872.16;5012402;28;20522;-70
2021/07/26 05:46:54;;;;;;;9.40;5.88;;;;;;;21.74;48.35;99868.97;5011271;28;20034;-70
2021/07/26 05:49:20;;;;;;;11.85;5.35;;;;;;;21.94;48.00;99867.78;5012171;28;20046;-79
2021/07/26 05:51:46;;;;;;;5.70;5.10;;;;;;;21.93;47.70;99871.84;5011156;28;20061;-68
2021/07/26 05:54:11;;;;;;;20.95;6.63;;;;;;;21.91;48.63;99860.84;5012480;28;20113;-69
2021/07/26 05:56:46;;;;;;;9.65;6.13;;;;;;;22.04;48.50;99866.16;5012267;28;20099;-70
2021/07/26 05:59:11;;;;;;;14.82;5.97;;;;;;;22.06;48.88;99864.53;5011803;28;20033;-72
2021/07/26 06:01:49;;;;;;;11.75;6.43;;;;;;;22.14;48.03;99856.81;5012243;28;20629;-71
2021/07/26 06:04:19;;;;;;;14.52;6.68;;;;;;;22.11;47.54;99855.59;5012393;28;20037;-71
2021/07/26 06:06:47;;;;;;;14.50;6.07;;;;;;;22.17;47.69;99861.69;5010701;28;20030;-70
2021/07/26 06:09:12;;;;;;;9.10;5.93;;;;;;;22.29;47.53;99864.16;5012684;28;20034;-70
2021/07/26 06:11:39;;;;;;;7.35;6.22;;;;;;;22.41;47.90;99865.78;5011980;28;20030;-70
2021/07/26 06:14:05;;;;;;;10.63;6.63;;;;;;;22.54;47.05;99857.66;5012582;28;20038;-70
2021/07/26 06:16:31;;;;;;;9.80;6.03;;;;;;;22.53;47.16;99861.75;5011948;28;20041;-70
2021/07/26 06:18:59;;;;;;;13.45;6.85;;;;;;;22.60;47.10;99855.22;5010718;28;20065;-70
2021/07/26 06:21:24;;;;;;;8.55;5.78;;;;;;;22.78;46.29;99868.66;5011641;28;20033;-71
2021/07/26 06:23:50;;;;;;;6.43;5.68;;;;;;;22.85;46.00;99866.59;5010836;28;20045;-69
2021/07/26 06:26:15;;;;;;;12.00;5.93;;;;;;;22.97;45.84;99865.34;5010957;28;20037;-70
2021/07/26 06:28:41;;;;;;;9.95;5.63;;;;;;;23.01;46.14;99862.50;5011646;28;20030;-70
2021/07/26 06:31:07;;;;;;;7.68;5.82;;;;;;;23.10;45.91;99860.03;5011762;28;20034;-69
2021/07/26 06:33:33;;;;;;;9.27;5.68;;;;;;;23.20;44.55;99854.69;5010617;28;20053;-70
2021/07/26 06:36:02;;;;;;;14.20;6.15;;;;;;;23.38;44.56;99846.09;5011745;28;20076;-71
2021/07/26 06:38:27;;;;;;;8.52;5.93;;;;;;;23.46;44.63;99858.28;5009853;28;20030;-70
2021/07/26 06:40:53;;;;;;;17.75;5.93;;;;;;;23.54;43.03;99862.75;5011618;28;20030;-70
2021/07/26 06:43:18;;;;;;;16.10;5.38;;;;;;;23.66;43.86;99856.56;5011639;28;20032;-70
2021/07/26 06:45:44;;;;;;;9.65;6.32;;;;;;;23.77;42.29;99852.81;5011611;28;20522;-70
2021/07/26 06:48:09;;;;;;;15.02;6.03;;;;;;;23.79;41.58;99851.19;4999884;28;20018;-71
2021/07/26 06:50:38;;;;;;;8.25;5.40;;;;;;;23.87;41.94;99836.88;4999262;28;20076;-70
2021/07/26 06:53:04;;;;;;;12.20;5.65;;;;;;;24.00;41.49;99840.03;5010973;28;20037;-70
2021/07/26 06:55:29;;;;;;;17.05;5.50;;;;;;;24.11;42.22;99841.63;5010997;28;20076;-70
2021/07/26 06:57:55;;;;;;;13.77;5.47;;;;;;;24.18;41.31;99846.47;5010405;28;20022;-70
2021/07/26 07:00:20;;;;;;;8.60;5.15;;;;;;;24.20;41.31;99841.16;5009065;28;20097;-72
2021/07/26 07:02:47;;;;;;;10.93;5.13;;;;;;;24.33;40.79;99844.31;5010745;28;20188;-73
2021/07/26 07:05:12;;;;;;;9.95;5.85;;;;;;;24.44;41.20;99841.38;5009368;28;20109;-74
2021/07/26 07:07:37;;;;;;;10.38;4.97;;;;;;;24.48;41.49;99842.13;5010324;28;20030;-70
2021/07/26 07:10:03;;;;;;;5.85;5.05;;;;;;;24.56;41.72;99833.50;5009464;28;20026;-69
2021/07/26 07:12:29;;;;;;;12.38;5.45;;;;;;;24.75;40.74;99834.94;5009348;28;20034;-70
2021/07/26 07:14:54;;;;;;;14.07;5.30;;;;;;;24.84;40.64;99834.47;5009546;28;20080;-72
2021/07/26 07:17:20;;;;;;;13.23;5.00;;;;;;;24.83;40.54;99830.81;5007734;28;20495;-73
2021/07/26 07:19:48;;;;;;;9.45;5.25;;;;;;;24.89;40.64;99831.16;5009471;28;20854;-72
2021/07/26 07:22:19;;;;;;;11.73;5.18;;;;;;;25.02;39.78;99829.38;5010225;28;20100;-72
2021/07/26 07:24:44;;;;;;;14.52;5.00;;;;;;;25.15;40.07;99835.34;5009195;28;20030;-72
2021/07/26 07:27:10;;;;;;;13.48;5.38;;;;;;;25.16;39.60;99833.31;5006892;28;20034;-72
2021/07/26 07:29:35;;;;;;;10.50;4.70;;;;;;;25.22;39.33;99826.69;5008998;28;20113;-72
2021/07/26 07:32:02;;;;;;;6.63;5.00;;;;;;;25.36;39.04;99822.03;5007208;28;20498;-72
2021/07/26 07:34:28;;;;;;;12.07;5.45;;;;;;;25.43;38.83;99823.97;5007487;28;20026;-72
2021/07/26 07:36:54;;;;;;;15.02;5.05;;;;;;;25.50;38.73;99826.78;5009535;28;20109;-72
2021/07/26 07:39:19;;;;;;;27.10;6.38;;;;;;;25.43;38.93;99815.38;5009394;28;20041;-70
2021/07/26 07:41:45;;;;;;;10.45;5.10;;;;;;;25.65;38.31;99819.63;5023330;28;20439;-74
2021/07/26 07:44:10;;;;;;;11.02;5.63;;;;;;;25.70;39.33;99812.59;5008230;28;20088;-70
2021/07/26 07:46:41;;;;;;;10.52;4.65;;;;;;;25.69;38.20;99825.28;5007811;28;20288;-70
2021/07/26 07:49:08;;;;;;;23.08;5.70;;;;;;;25.78;38.63;99819.03;5008287;28;20387;-70
2021/07/26 07:51:33;;;;;;;10.35;5.18;;;;;;;25.82;38.44;99828.38;5008061;28;20565;-70
2021/07/26 07:54:00;;;;;;;17.92;5.22;;;;;;;25.83;38.90;99826.31;5010702;28;20030;-69
2021/07/26 07:56:25;;;;;;;15.93;5.65;;;;;;;26.04;38.74;99819.44;5009066;28;20554;-70
2021/07/26 07:58:54;;;;;;;8.15;4.93;;;;;;;26.16;37.85;99818.84;5009108;28;20021;-70
2021/07/26 08:01:28;;;;;;;12.95;5.15;;;;;;;26.26;36.86;99819.13;5008828;28;20058;-69
2021/07/26 08:03:53;;;;;;;7.22;5.38;;;;;;;26.39;37.48;99830.81;5007790;28;20034;-70
2021/07/26 08:06:18;;;;;;;8.05;4.80;;;;;;;26.42;37.68;99827.06;5008165;28;20041;-69
2021/07/26 08:08:44;;;;;;;21.48;5.63;;;;;;;26.57;37.51;99825.56;5008274;28;20030;-69
2021/07/26 08:11:12;;;;;;;6.93;4.93;;;;;;;26.64;36.20;99816.00;5007920;28;20037;-70
2021/07/26 08:13:39;;;;;;;9.18;4.85;;;;;;;26.76;36.91;99812.50;5006873;28;20028;-71
2021/07/26 08:16:05;;;;;;;10.13;5.25;;;;;;;26.93;36.35;99818.38;5007142;28;20484;-71
2021/07/26 08:18:31;;;;;;;9.65;5.30;;;;;;;26.79;36.26;99819.41;5006576;28;20050;-72
2021/07/26 08:20:56;;;;;;;9.38;5.40;;;;;;;26.83;36.33;99814.41;5009873;28;20510;-70
2021/07/26 08:23:22;;;;;;;10.02;5.38;;;;;;;26.91;36.09;99813.06;5009459;28;20030;-69
2021/07/26 08:25:47;;;;;;;22.90;5.30;;;;;;;27.12;36.91;99811.03;5010031;28;20072;-70
2021/07/26 08:28:13;;;;;;;11.90;4.50;;;;;;;27.17;36.06;99806.84;5009711;28;20030;-73
2021/07/26 08:30:39;;;;;;;9.15;4.40;;;;;;;27.13;36.31;99804.03;5012792;28;20036;-73
2021/07/26 08:33:05;;;;;;;5.72;4.93;;;;;;;27.04;35.46;99813.25;5013788;28;20034;-71
2021/07/26 08:35:31;;;;;;;13.88;5.90;;;;;;;27.25;35.96;99808.28;5012485;28;20034;-70
2021/07/26 08:37:57;;;;;;;9.52;4.35;;;;;;;27.43;34.90;99801.34;5028590;28;20538;-72
2021/07/26 08:40:25;;;;;;;11.95;5.40;;;;;;;27.60;34.61;99796.50;5012234;28;20117;-71
2021/07/26 08:42:51;;;;;;;10.48;5.82;;;;;;;27.74;34.55;99799.03;5027786;28;20022;-69
2021/07/26 08:45:17;;;;;;;10.18;4.93;;;;;;;27.89;34.75;99790.91;5013421;28;20042;-71
2021/07/26 08:47:44;;;;;;;10.98;5.78;;;;;;;27.95;34.63;99793.22;5004507;28;20419;-70
2021/07/26 08:50:12;;;;;;;7.80;4.00;;;;;;;28.05;33.58;99788.47;5013295;28;20037;-71
2021/07/26 08:52:40;;;;;;;11.90;4.10;;;;;;;28.12;34.39;99782.53;5013125;28;20416;-71
2021/07/26 08:55:10;;;;;;;9.25;4.22;;;;;;;28.25;34.15;99789.22;5013319;28;20403;-71
2021/07/26 08:57:35;;;;;;;9.43;4.38;;;;;;;28.17;34.01;99784.88;5010914;28;20030;-71
2021/07/26 09:00:02;;;;;;;11.68;3.88;;;;;;;28.32;33.45;99787.44;5007166;28;20103;-73
2021/07/26 09:02:27;;;;;;;6.28;4.03;;;;;;;28.47;33.44;99788.66;5012420;28;20072;-74
2021/07/26 09:04:53;;;;;;;9.73;4.20;;;;;;;28.54;34.34;99782.72;5013024;28;20026;-71
2021/07/26 09:07:26;;;;;;;4.38;3.63;;;;;;;28.69;33.25;99782.34;5013005;28;20037;-68
2021/07/26 09:09:51;;;;;;;4.80;3.60;;;;;;;28.81;32.56;99775.00;5011778;28;20029;-71
2021/07/26 09:12:39;;;;;;;6.25;3.95;;;;;;;28.83;33.01;99784.84;5012738;28;20488;-70
2021/07/26 09:15:05;;;;;;;8.80;4.07;;;;;;;28.93;33.35;99782.13;5014723;28;20097;-70
2021/07/26 09:17:37;;;;;;;12.32;4.03;;;;;;;29.09;31.61;99767.66;5012586;28;20120;-68
2021/07/26 09:20:03;;;;;;;7.72;3.55;;;;;;;29.16;32.91;99777.34;5012497;28;20105;-68
2021/07/26 09:22:36;;;;;;;7.05;3.97;;;;;;;29.23;33.16;99774.25;5011259;28;20411;-69
2021/07/26 09:25:21;;;;;;;9.13;4.10;;;;;;;29.20;32.36;99767.34;5013081;28;20040;-69
2021/07/26 09:28:13;;;;;;;7.25;4.25;;;;;;;29.27;32.24;99752.72;5007948;28;20053;-69
2021/07/26 09:30:42;;;;;;;9.55;4.47;;;;;;;29.41;32.36;99744.88;5009974;28;20033;-69
2021/07/26 09:33:21;;;;;;;7.80;4.78;;;;;;;29.54;32.24;99744.94;5010936;28;20029;-73
2021/07/26 09:36:08;;;;;;;7.25;3.92;;;;;;;29.37;32.32;99752.84;5011443;28;20030;-70
2021/07/26 09:38:35;;;;;;;7.85;4.18;;;;;;;29.35;32.44;99746.75;5010460;28;20107;-71
2021/07/26 09:41:05;;;;;;;6.68;3.53;;;;;;;29.53;32.90;99738.34;5009104;28;20053;-70
2021/07/26 09:43:31;;;;;;;4.38;3.88;;;;;;;29.49;32.78;99743.44;5010205;28;20034;-72
2021/07/26 09:45:57;;;;;;;15.93;4.72;;;;;;;29.60;32.98;99748.06;5011335;28;20087;-75
2021/07/26 09:48:31;;;;;;;13.18;5.07;;;;;;;29.74;33.18;99741.81;5010835;28;20042;-72
2021/07/26 09:51:03;;;;;;;29.45;4.85;;;;;;;29.80;33.53;99736.28;5006398;28;20182;-70
2021/07/26 09:53:29;;;;;;;8.15;4.03;;;;;;;29.89;32.81;99733.53;5011865;28;20041;-74
2021/07/26 09:56:12;;;;;;;6.50;3.90;;;;;;;29.95;32.98;99740.28;5012071;28;20113;-70
2021/07/26 09:58:39;;;;;;;7.18;3.70;;;;;;;30.08;31.56;99742.38;5007179;28;20022;-71
2021/07/26 10:01:06;;;;;;;6.15;3.65;;;;;;;30.29;32.50;99735.09;5011421;28;20510;-72
2021/07/26 10:03:32;;;;;;;10.43;5.18;;;;;;;30.28;30.95;99736.34;5010153;28;20095;-70
2021/07/26 10:05:59;;;;;;;9.30;4.53;;;;;;;30.28;30.33;99736.34;5010699;28;20492;-72
2021/07/26 10:08:26;;;;;;;9.48;4.05;;;;;;;30.46;30.58;99735.69;5010529;28;20034;-72
2021/07/26 10:10:53;;;;;;;10.90;4.30;;;;;;;30.39;30.57;99742.53;5020783;28;20066;-72
2021/07/26 10:13:19;;;;;;;5.85;3.88;;;;;;;30.45;30.68;99731.19;4998023;28;20483;-71
2021/07/26 10:15:45;;;;;;;9.38;4.20;;;;;;;30.62;30.11;99731.84;5010531;28;20132;-71
2021/07/26 10:18:10;;;;;;;7.90;4.50;;;;;;;30.68;29.60;99727.13;5009897;28;20048;-72
2021/07/26 10:20:39;;;;;;;7.18;4.00;;;;;;;30.66;30.28;99723.91;5008057;28;20065;-72
2021/07/26 10:23:20;;;;;;;10.17;4.17;;;;;;;30.72;29.24;99734.81;5007314;28;20473;-71
2021/07/26 10:25:56;;;;;;;7.13;3.75;;;;;;;30.72;29.67;99729.06;5022239;28;20160;-72
2021/07/26 10:28:26;;;;;;;32.63;5.47;;;;;;;30.66;28.86;99718.13;5011729;28;20025;-72
2021/07/26 10:30:52;;;;;;;18.45;4.50;;;;;;;30.67;29.69;99719.72;5010251;28;20033;-72
2021/07/26 10:33:17;;;;;;;12.68;3.95;;;;;;;30.64;29.94;99711.19;5026480;28;20033;-72
2021/07/26 10:35:54;;;;;;;7.50;4.28;;;;;;;30.72;29.34;99709.66;5011426;28;20109;-72
2021/07/26 10:38:44;;;;;;;10.40;3.78;;;;;;;30.96;29.66;99704.22;5004398;28;20038;-72
2021/07/26 10:41:30;;;;;;;15.50;5.32;;;;;;;31.03;28.58;99697.34;5011122;28;20497;-72
2021/07/26 10:43:59;;;;;;;13.80;4.20;;;;;;;31.10;28.58;99708.63;5026452;28;20044;-72
2021/07/26 10:46:25;;;;;;;14.25;4.28;;;;;;;31.21;28.06;99699.53;5011271;28;20413;-72
2021/07/26 10:48:52;;;;;;;10.02;3.67;;;;;;;31.29;27.58;99693.50;5010148;28;20096;-72
2021/07/26 10:51:50;;;;;;;8.10;4.35;;;;;;;31.34;27.01;99687.09;5001863;28;20535;-71
2021/07/26 10:54:32;;;;;;;5.60;3.72;;;;;;;31.46;26.60;99686.19;4955625;28;20041;-71
2021/07/26 10:57:03;;;;;;;15.75;4.55;;;;;;;31.72;27.02;99685.97;5026151;28;20037;-71
2021/07/26 10:59:30;;;;;;;10.85;3.83;;;;;;;31.44;26.99;99702.41;5009542;28;20099;-71
2021/07/26 11:02:01;;;;;;;6.72;4.18;;;;;;;31.55;27.32;99696.19;5010725;28;20030;-71
2021/07/26 11:04:32;;;;;;;4.53;3.90;;;;;;;31.64;26.76;99691.25;5009449;28;20034;-71
2021/07/26 11:06:59;;;;;;;7.28;4.22;;;;;;;31.71;26.46;99689.34;5009925;28;20484;-71
2021/07/26 11:09:27;;;;;;;6.00;4.35;;;;;;;31.99;26.16;99678.69;5010632;28;20382;-72
2021/07/26 11:11:53;;;;;;;8.45;3.90;;;;;;;31.98;26.98;99676.25;5009433;28;20025;-71
2021/07/26 11:14:20;;;;;;;7.60;3.97;;;;;;;31.95;26.47;99669.34;5009358;28;20038;-71
2021/07/26 11:17:00;;;;;;;9.07;3.88;;;;;;;32.11;26.07;99665.34;5010883;28;20468;-72
2021/07/26 11:19:35;;;;;;;10.60;4.40;;;;;;;32.02;25.75;99666.16;5009448;28;20404;-72
2021/07/26 11:22:03;;;;;;;16.35;4.25;;;;;;;32.14;26.11;99657.81;5016970;28;20032;-72
2021/07/26 11:24:40;;;;;;;12.40;3.78;;;;;;;32.16;25.14;99652.34;5009226;28;20462;-72
2021/07/26 11:27:17;;;;;;;4.60;3.78;;;;;;;32.10;24.25;99649.28;5002480;28;20033;-72
2021/07/26 11:29:44;;;;;;;4.55;4.15;;;;;;;32.18;24.02;99658.44;5009063;28;20071;-72